Date,TemperatureHighF,TemperatureAvgF,TemperatureLowF,DewpointHighF,DewpointAvgF,DewpointLowF,HumidityHigh,HumidityAvg,HumidityLow,PressureMaxIn,PressureMinIn,WindSpeedMaxMPH,WindSpeedAvgMPH,GustSpeedMaxMPH,PrecipitationSumIn
2013-8-1,109,97,87,65,60,57,40,31,22,29.85,29.72,18,2,18,0.00
2013-8-2,108,95,84,65,60,54,48,33,19,29.84,29.73,10,2,10,0.00
2013-8-3,109,96,83,62,57,50,45,29,17,29.89,29.74,10,2,10,0.00
2013-8-4,109,95,82,56,46,39,25,20,12,29.89,29.75,7,1,7,0.00
2013-8-5,104,92,80,64,53,38,40,28,18,29.91,29.76,12,3,12,0.00
2013-8-6,89,84,80,68,63,56,59,50,38,29.97,29.82,9,2,9,0.01
2013-8-7,104,88,76,67,60,43,66,43,23,29.93,29.76,10,2,10,0.00
2013-8-8,106,89,72,57,46,37,49,25,11,29.84,29.70,10,2,10,0.00
2013-8-9,109,91,73,52,44,34,39,22,11,29.81,29.69,10,2,10,0.00
2013-8-10,109,92,77,47,40,30,33,18,8,29.90,29.75,10,2,10,0.00
2013-8-11,107,90,73,55,42,34,31,20,14,29.89,29.71,9,2,9,0.00
2013-8-12,110,92,76,63,48,35,40,24,11,29.83,29.71,11,2,11,0.00
2013-8-13,108,91,74,52,39,35,31,18,8,29.90,29.75,11,2,11,0.00
2013-8-14,110,94,79,56,45,34,29,20,13,29.87,29.70,9,2,9,0.00
2013-8-15,112,98,84,64,58,43,42,28,17,29.87,29.73,9,2,9,0.01
2013-8-16,114,99,84,62,57,50,42,27,14,29.85,29.71,10,2,10,0.00
2013-8-17,113,98,87,64,59,53,45,29,17,29.90,29.67,27,3,27,0.08
2013-8-18,112,96,83,64,60,54,51,33,17,29.89,29.69,18,2,18,0.02
2013-8-19,110,97,87,63,58,52,40,29,18,29.85,29.69,8,2,8,0.00
2013-8-20,110,96,83,61,56,51,39,27,17,29.81,29.66,15,2,15,0.00
2013-8-21,103,93,86,63,60,56,42,34,25,29.86,29.74,8,1,8,0.00
2013-8-22,103,93,85,62,58,55,42,33,23,29.86,29.70,12,2,12,0.00
2013-8-23,104,91,81,64,60,53,52,36,22,29.80,29.63,10,2,10,0.00
2013-8-24,96,86,76,67,63,54,70,48,32,29.89,29.71,13,3,13,0.31
2013-8-25,87,83,80,69,66,64,66,57,50,29.93,29.82,11,2,11,0.00
2013-8-26,100,87,78,72,67,63,68,53,36,29.87,29.71,18,2,18,0.01
2013-8-27,107,91,79,71,67,62,68,48,26,29.81,29.64,11,2,11,0.00
2013-8-28,109,93,81,66,63,58,56,38,23,29.89,29.66,23,2,23,0.00
2013-8-29,98,86,78,72,69,65,72,57,42,29.96,29.86,15,2,15,0.00
2013-8-30,101,87,80,74,70,68,72,60,39,29.96,29.83,14,2,14,0.00
2013-8-31,102,89,80,74,69,65,71,54,34,29.90,29.73,10,2,10,0.00